createdAt,value
2023-02-19T00:03:25.952Z,98379.09
2023-02-19T00:08:31.930Z,98514.06
2023-02-19T00:13:40.524Z,98500.19
2023-02-19T00:18:44.975Z,98491.28
2023-02-19T00:24:04.179Z,98490.56
2023-02-19T00:29:08.090Z,98484.31
2023-02-19T00:34:12.812Z,98364.56
2023-02-19T00:39:19.022Z,98486.06
2023-02-19T00:44:32.404Z,98372.81
2023-02-19T00:49:37.014Z,98364.53
2023-02-19T00:54:40.422Z,98469.56
2023-02-19T00:59:43.788Z,98368.78
2023-02-19T01:04:47.360Z,98354.00
2023-02-19T01:09:51.167Z,98281.00
2023-02-19T01:14:55.924Z,98236.16
2023-02-19T01:19:59.455Z,98402.25
2023-02-19T01:25:13.347Z,98362.88
2023-02-19T01:30:16.865Z,98308.31
2023-02-19T01:35:23.890Z,98224.03
2023-02-19T01:40:27.710Z,98427.25
2023-02-19T01:45:34.866Z,98393.28
2023-02-19T01:50:46.360Z,98349.91
2023-02-19T01:55:53.316Z,98276.22
2023-02-19T02:00:56.976Z,98312.28
2023-02-19T02:06:08.801Z,98354.94
2023-02-19T02:11:18.223Z,98272.28
2023-02-19T02:16:55.431Z,98311.53
2023-02-19T02:22:01.099Z,98386.31
2023-02-19T02:27:23.566Z,98390.56
2023-02-19T02:32:39.817Z,98377.16
2023-02-19T02:37:46.630Z,98395.78
2023-02-19T02:42:49.244Z,98310.25
2023-02-19T02:48:01.542Z,98361.84
2023-02-19T02:53:28.175Z,98175.00
2023-02-19T02:58:33.038Z,98310.53
2023-02-19T03:03:37.965Z,98307.34
2023-02-19T03:08:56.673Z,98341.81
2023-02-19T03:14:26.215Z,98324.38
2023-02-19T03:19:33.936Z,98282.03
2023-02-19T03:25:00.310Z,98321.59
2023-02-19T03:30:09.340Z,98317.44
2023-02-19T03:35:19.739Z,98321.50
2023-02-19T03:40:27.380Z,98273.91
2023-02-19T03:45:56.536Z,98208.78
2023-02-19T03:51:31.695Z,98274.50
2023-02-19T03:56:52.369Z,98184.41
2023-02-19T04:02:01.652Z,98301.44
2023-02-19T04:07:04.651Z,98136.59
2023-02-19T04:12:08.472Z,98143.19
2023-02-19T04:17:20.668Z,98300.94
2023-02-19T04:22:24.040Z,98264.34
2023-02-19T04:27:26.741Z,98292.81
2023-02-19T04:32:29.353Z,98194.81
2023-02-19T04:37:31.917Z,98075.91
2023-02-19T04:42:34.646Z,98259.06
2023-02-19T04:47:37.291Z,98240.22
2023-02-19T04:52:40.324Z,98204.44
2023-02-19T04:57:43.118Z,98134.19
2023-02-19T05:02:45.826Z,98057.53
2023-02-19T05:07:58.576Z,98079.31
2023-02-19T05:13:01.293Z,98270.56
2023-02-19T05:18:04.425Z,98196.66
2023-02-19T05:23:06.994Z,98200.81
2023-02-19T05:28:19.329Z,98202.78
2023-02-19T05:33:25.848Z,98265.84
2023-02-19T05:38:28.833Z,98214.06
2023-02-19T05:43:31.415Z,98219.91
2023-02-19T05:48:34.480Z,98170.50
2023-02-19T05:53:37.481Z,98104.56
2023-02-19T05:58:41.411Z,98239.19
2023-02-19T06:03:44.040Z,98202.63
2023-02-19T06:08:47.171Z,98253.47
2023-02-19T06:13:52.748Z,98254.56
2023-02-19T06:18:55.761Z,98127.09
2023-02-19T06:24:10.076Z,98251.84
2023-02-19T06:29:12.721Z,98236.97
2023-02-19T06:34:25.954Z,98209.31
2023-02-19T06:39:39.464Z,98196.19
2023-02-19T06:44:42.089Z,98131.53
2023-02-19T06:49:44.772Z,98257.09
2023-02-19T06:54:52.382Z,98128.44
2023-02-19T07:00:05.525Z,98261.78
2023-02-19T07:05:09.061Z,98227.31
2023-02-19T07:10:11.653Z,98238.13
2023-02-19T07:15:14.400Z,98261.44
2023-02-19T07:20:17.001Z,98270.81
2023-02-19T07:25:19.690Z,98081.44
2023-02-19T07:30:22.348Z,98147.16
2023-02-19T07:35:24.989Z,98293.50
2023-02-19T07:40:28.523Z,98153.28
2023-02-19T07:45:31.161Z,98252.06
2023-02-19T07:50:33.760Z,98133.97
2023-02-19T07:55:36.622Z,98313.13
2023-02-19T08:00:39.471Z,98288.94
2023-02-19T08:05:43.601Z,98210.81
2023-02-19T08:11:06.172Z,98230.00
2023-02-19T08:16:18.444Z,98326.41
2023-02-19T08:21:22.927Z,98310.69
2023-02-19T08:26:25.667Z,98268.72
2023-02-19T08:31:28.644Z,98207.75
2023-02-19T08:36:36.063Z,98286.78
2023-02-19T08:41:38.759Z,98314.34
2023-02-19T08:46:41.335Z,98125.94
2023-02-19T08:51:54.020Z,98183.28
2023-02-19T08:56:56.724Z,98208.16
2023-02-19T09:01:59.951Z,98320.06
2023-02-19T09:07:02.653Z,98296.91
2023-02-19T09:12:07.117Z,98279.88
2023-02-19T09:17:19.955Z,98309.63
2023-02-19T09:22:22.717Z,98302.72
2023-02-19T09:27:25.356Z,98177.16
2023-02-19T09:32:37.967Z,98242.75
2023-02-19T09:37:40.648Z,98278.03
2023-02-19T09:42:44.278Z,98233.44
2023-02-19T09:47:58.983Z,98295.38
2023-02-19T09:53:05.550Z,98282.31
2023-02-19T09:58:30.900Z,98295.97
2023-02-19T10:03:36.272Z,98292.00
2023-02-19T10:08:42.113Z,98289.47
2023-02-19T10:14:10.046Z,98294.63
2023-02-19T10:19:22.914Z,98278.09
2023-02-19T10:24:29.803Z,98262.19
2023-02-19T10:29:33.561Z,98141.84
2023-02-19T10:34:36.421Z,98166.56
2023-02-19T10:39:50.763Z,98293.72
2023-02-19T10:44:59.614Z,98258.66
2023-02-19T10:50:04.769Z,98229.84
2023-02-19T10:55:15.421Z,98270.44
2023-02-19T11:00:31.247Z,98271.16
2023-02-19T11:05:34.378Z,98231.31
2023-02-19T11:10:43.260Z,98267.56
2023-02-19T11:15:53.873Z,98213.69
2023-02-19T11:21:02.512Z,98243.81
2023-02-19T11:26:20.234Z,98259.31
2023-02-19T11:31:26.451Z,98249.59
2023-02-19T11:36:36.226Z,98239.97
2023-02-19T11:42:22.145Z,98244.50
2023-02-19T11:47:43.580Z,98238.34
2023-02-19T11:53:04.733Z,98241.72
2023-02-19T11:58:16.848Z,98241.25
2023-02-19T12:03:25.592Z,98239.38
2023-02-19T12:08:58.649Z,98192.63
2023-02-19T12:14:31.513Z,98122.19
2023-02-19T12:19:55.713Z,98242.00
2023-02-19T12:25:18.090Z,98187.41
2023-02-19T12:31:03.042Z,98229.09
2023-02-19T12:36:34.250Z,98221.16
2023-02-19T12:41:49.205Z,98192.31
2023-02-19T12:46:59.196Z,98200.78
2023-02-19T12:52:29.631Z,98184.75
2023-02-19T12:57:39.066Z,98144.44
2023-02-19T13:03:01.135Z,98166.94
2023-02-19T13:09:04.721Z,98080.19
2023-02-19T13:14:35.026Z,98205.47
2023-02-19T13:19:39.213Z,98154.16
2023-02-19T13:24:43.929Z,98167.66
2023-02-19T13:29:54.161Z,98117.28
2023-02-19T13:35:02.832Z,98144.03
2023-02-19T13:40:19.685Z,98107.84
2023-02-19T13:45:44.264Z,97999.63
2023-02-19T13:50:47.985Z,98096.09
2023-02-19T13:55:53.523Z,98165.75
2023-02-19T14:00:56.393Z,97996.41
2023-02-19T14:06:06.952Z,98088.66
2023-02-19T14:11:42.062Z,98113.63
2023-02-19T14:17:05.385Z,98149.78
2023-02-19T14:22:51.039Z,98136.53
2023-02-19T14:28:11.556Z,98138.88
2023-02-19T14:33:18.372Z,98069.47
2023-02-19T14:38:31.255Z,98057.97
2023-02-19T14:43:36.258Z,98002.41
2023-02-19T14:48:43.355Z,98160.88
2023-02-19T14:53:46.627Z,98043.81
2023-02-19T14:59:08.531Z,98182.41
2023-02-19T15:04:27.642Z,98014.81
2023-02-19T15:09:38.619Z,98132.91
2023-02-19T15:14:41.479Z,98023.72
2023-02-19T15:19:46.032Z,98142.09
2023-02-19T15:24:49.533Z,98121.78
2023-02-19T15:30:02.494Z,98090.22
2023-02-19T15:35:06.065Z,98149.22
2023-02-19T15:40:10.047Z,98136.25
2023-02-19T15:45:37.623Z,98115.69
2023-02-19T15:50:44.919Z,98124.97
2023-02-19T15:55:58.642Z,98184.41
2023-02-19T16:01:05.619Z,98182.66
2023-02-19T16:06:18.967Z,98204.38
2023-02-19T16:11:24.977Z,98200.56
2023-02-19T16:16:32.146Z,98046.13
2023-02-19T16:21:35.288Z,98087.63
2023-02-19T16:26:45.985Z,98192.25
2023-02-19T16:31:55.767Z,98187.97
2023-02-19T16:36:58.767Z,98195.94
2023-02-19T16:42:03.220Z,98210.19
2023-02-19T16:47:14.827Z,98218.03
2023-02-19T16:52:17.835Z,98222.66
2023-02-19T16:57:21.475Z,98207.03
2023-02-19T17:02:25.873Z,98189.31
2023-02-19T17:07:28.586Z,98207.00
2023-02-19T17:12:31.335Z,98211.28
2023-02-19T17:17:34.283Z,98213.31
2023-02-19T17:22:36.887Z,98243.81
2023-02-19T17:27:39.585Z,98245.47
2023-02-19T17:32:42.188Z,98204.94
2023-02-19T17:37:44.792Z,98258.06
2023-02-19T17:42:47.359Z,98265.84
2023-02-19T17:47:51.494Z,98284.34
2023-02-19T17:52:54.270Z,98239.25
2023-02-19T17:57:57.788Z,98284.41
2023-02-19T18:03:00.447Z,98277.25
2023-02-19T18:08:03.250Z,98246.88
2023-02-19T18:13:06.645Z,98294.56
2023-02-19T18:18:10.588Z,98155.22
2023-02-19T18:23:14.334Z,98317.97
2023-02-19T18:28:18.232Z,98334.34
2023-02-19T18:33:21.474Z,98231.28
2023-02-19T18:38:24.143Z,98317.53
2023-02-19T18:43:26.921Z,98278.91
2023-02-19T18:48:29.564Z,98267.50
2023-02-19T18:53:32.123Z,98323.88
2023-02-19T18:58:34.742Z,98350.91
2023-02-19T19:03:37.369Z,98291.19
2023-02-19T19:08:39.978Z,98334.38
2023-02-19T19:13:48.851Z,98186.81
2023-02-19T19:18:51.672Z,98193.53
2023-02-19T19:23:54.398Z,98357.53
2023-02-19T19:29:00.693Z,98376.16
2023-02-19T19:34:03.777Z,98214.19
2023-02-19T19:39:06.880Z,98360.16
2023-02-19T19:44:10.442Z,98401.44
2023-02-19T19:49:18.947Z,98404.69
2023-02-19T19:54:21.583Z,98257.69
2023-02-19T19:59:24.302Z,98385.91
2023-02-19T20:04:27.029Z,98248.75
2023-02-19T20:09:29.895Z,98275.47
2023-02-19T20:14:32.478Z,98283.69
2023-02-19T20:19:35.207Z,98285.25
2023-02-19T20:24:37.864Z,98431.44
2023-02-19T20:29:40.495Z,98396.56
2023-02-19T20:34:43.108Z,98277.81
2023-02-19T20:39:45.880Z,98408.72
2023-02-19T20:44:48.612Z,98400.28
2023-02-19T20:49:52.498Z,98444.16
2023-02-19T20:54:57.273Z,98396.84
2023-02-19T20:59:59.879Z,98356.94
2023-02-19T21:05:02.846Z,98446.47
2023-02-19T21:10:11.439Z,98436.84
2023-02-19T21:15:15.589Z,98411.81
2023-02-19T21:20:21.074Z,98479.66
2023-02-19T21:25:23.797Z,98424.84
2023-02-19T21:30:26.419Z,98414.50
2023-02-19T21:35:29.921Z,98405.47
2023-02-19T21:40:33.747Z,98420.09
2023-02-19T21:45:36.446Z,98451.50
2023-02-19T21:50:39.358Z,98441.78
2023-02-19T21:55:56.640Z,98386.91
2023-02-19T22:01:01.027Z,98438.38
2023-02-19T22:06:03.788Z,98391.47
2023-02-19T22:11:06.332Z,98298.09
2023-02-19T22:16:09.335Z,98467.00
2023-02-19T22:21:12.162Z,98471.22
2023-02-19T22:26:28.786Z,98458.19
2023-02-19T22:31:33.634Z,98455.16
2023-02-19T22:36:38.078Z,98488.13
2023-02-19T22:41:43.590Z,98412.28
2023-02-19T22:46:57.021Z,98437.25
2023-02-19T22:52:09.348Z,98401.69
2023-02-19T22:57:11.989Z,98313.63
2023-02-19T23:02:24.595Z,98497.09
2023-02-19T23:07:27.336Z,98350.16
2023-02-19T23:12:29.938Z,98484.81
2023-02-19T23:17:32.548Z,98428.56
2023-02-19T23:22:35.977Z,98468.97
2023-02-19T23:27:38.647Z,98512.28
2023-02-19T23:32:41.252Z,98478.56
2023-02-19T23:37:54.052Z,98507.84
2023-02-19T23:42:57.666Z,98487.50
2023-02-19T23:48:00.398Z,98486.47
2023-02-19T23:53:05.076Z,98523.47
2023-02-19T23:58:07.727Z,98464.03
